Time;durP1;ratioP1;P1;durP2;ratioP2;P2;SDS_P1;SDS_P2;PMS_P1;PMS_P2;Temp;Humidity;BMP_temperature;BMP_pressure;BME280_temperature;BME280_humidity;BME280_pressure;Samples;Min_cycle;Max_cycle;Signal;HPM_P1;HPM_P2
2021/11/22 00:01:22;;;;;;;;;;;9.20;73.00;;;;;;5097623;27;88040;-55
2021/11/22 00:03:48;;;;;;;;;;;9.20;73.00;;;;;;5098184;27;87190;-54
2021/11/22 00:06:14;;;;;;;;;;;9.20;73.10;;;;;;5099414;27;87167;-55
2021/11/22 00:08:39;;;;;;;;;;;9.20;73.00;;;;;;5099970;27;87715;-55
2021/11/22 00:11:05;;;;;;;;;;;9.10;73.00;;;;;;5104040;27;86390;-55
2021/11/22 00:13:30;;;;;;;;;;;9.10;73.00;;;;;;5102219;27;88386;-55
2021/11/22 00:15:56;;;;;;;;;;;9.10;73.00;;;;;;5104871;27;87188;-56
2021/11/22 00:18:21;;;;;;;;;;;9.10;73.10;;;;;;5104237;27;89059;-56
2021/11/22 00:20:47;;;;;;;;;;;9.10;72.90;;;;;;5101548;27;89998;-55
2021/11/22 00:23:13;;;;;;;;;;;9.10;72.90;;;;;;5102182;27;87899;-55
2021/11/22 00:25:38;;;;;;;;;;;9.10;73.00;;;;;;5100807;27;87567;-56
2021/11/22 00:28:04;;;;;;;;;;;9.10;72.90;;;;;;5101544;27;89146;-56
2021/11/22 00:30:29;;;;;;;;;;;9.10;72.90;;;;;;5103247;27;87166;-54
2021/11/22 00:32:57;;;;;;;;;;;9.10;72.90;;;;;;5106788;27;89075;-55
2021/11/22 00:35:31;;;;;;;;;;;9.10;72.80;;;;;;5102649;27;86544;-56
2021/11/22 00:37:57;;;;;;;;;;;9.10;72.70;;;;;;5102612;27;88172;-56
2021/11/22 00:40:22;;;;;;;;;;;9.00;72.70;;;;;;5099680;27;88413;-56
2021/11/22 00:42:48;;;;;;;;;;;9.00;72.80;;;;;;5100961;27;88907;-56
2021/11/22 00:45:14;;;;;;;;;;;9.00;72.70;;;;;;5104388;27;87968;-56
2021/11/22 00:47:40;;;;;;;;;;;9.00;72.70;;;;;;5103019;27;89291;-53
2021/11/22 00:50:06;;;;;;;;;;;9.00;72.80;;;;;;5102453;27;87234;-56
2021/11/22 00:52:31;;;;;;;;;;;9.00;72.70;;;;;;5104558;27;87193;-57
2021/11/22 00:54:57;;;;;;;;;;;9.00;72.80;;;;;;5103058;27;87133;-55
2021/11/22 00:57:22;;;;;;;;;;;9.00;72.80;;;;;;5104305;27;87574;-56
2021/11/22 00:59:48;;;;;;;;;;;9.00;72.60;;;;;;5104054;27;88039;-56
2021/11/22 01:02:14;;;;;;;;;;;8.90;72.70;;;;;;5100563;27;87936;-54
2021/11/22 01:04:39;;;;;;;;;;;8.90;72.70;;;;;;5099998;27;89304;-56
2021/11/22 01:07:05;;;;;;;;;;;8.90;72.70;;;;;;5100089;27;88899;-55
2021/11/22 01:09:30;;;;;;;;;;;8.90;72.80;;;;;;5100637;27;87177;-56
2021/11/22 01:11:56;;;;;;;;;;;8.90;72.70;;;;;;5101167;27;87987;-55
2021/11/22 01:14:22;;;;;;;;;;;8.80;72.70;;;;;;5102336;27;87817;-56
2021/11/22 01:16:48;;;;;;;;;;;8.80;72.80;;;;;;5100537;27;87128;-56
2021/11/22 01:19:13;;;;;;;;;;;8.80;72.60;;;;;;5100743;27;87627;-56
2021/11/22 01:21:39;;;;;;;;;;;8.80;72.80;;;;;;5101482;27;87114;-56
2021/11/22 01:24:04;;;;;;;;;;;8.80;72.70;;;;;;5103192;27;86907;-55
2021/11/22 01:26:30;;;;;;;;;;;8.80;72.70;;;;;;5103497;27;87823;-56
2021/11/22 01:28:56;;;;;;;;;;;8.70;72.90;;;;;;5103301;27;87129;-56
2021/11/22 01:31:21;;;;;;;;;;;8.70;72.80;;;;;;5102537;27;88174;-57
2021/11/22 01:33:47;;;;;;;;;;;8.70;72.90;;;;;;5103823;27;88276;-56
2021/11/22 01:36:12;;;;;;;;;;;8.70;72.90;;;;;;5105084;27;87978;-57
2021/11/22 01:38:38;;;;;;;;;;;8.70;72.80;;;;;;5099026;27;87695;-56
2021/11/22 01:41:04;;;;;;;;;;;8.70;73.30;;;;;;5099961;27;87271;-56
2021/11/22 01:43:30;;;;;;;;;;;8.70;72.80;;;;;;5100544;27;87920;-56
2021/11/22 01:45:56;;;;;;;;;;;8.70;72.80;;;;;;5099423;27;89207;-56
2021/11/22 01:48:22;;;;;;;;;;;8.60;72.90;;;;;;5100127;27;86403;-54
2021/11/22 01:50:48;;;;;;;;;;;8.60;72.80;;;;;;5100042;27;88814;-55
2021/11/22 01:53:15;;;;;;;;;;;8.60;72.80;;;;;;5100593;27;88227;-56
2021/11/22 01:55:41;;;;;;;;;;;8.60;72.80;;;;;;5099253;27;88086;-57
2021/11/22 01:58:07;;;;;;;;;;;8.60;72.70;;;;;;5101931;27;87982;-56
2021/11/22 02:00:35;;;;;;;;;;;8.60;72.50;;;;;;5099839;27;87141;-56
2021/11/22 02:03:01;;;;;;;;;;;8.60;72.50;;;;;;5100768;27;88050;-56
2021/11/22 02:05:27;;;;;;;;;;;8.60;72.40;;;;;;5102172;27;88443;-55
2021/11/22 02:07:53;;;;;;;;;;;8.60;72.30;;;;;;5103335;27;87200;-56
2021/11/22 02:10:19;;;;;;;;;;;8.60;72.30;;;;;;5102391;27;88537;-56
2021/11/22 02:12:44;;;;;;;;;;;8.50;72.30;;;;;;5101285;27;86984;-55
2021/11/22 02:15:11;;;;;;;;;;;8.50;72.40;;;;;;5101292;27;87124;-55
2021/11/22 02:17:39;;;;;;;;;;;8.50;72.20;;;;;;5100511;27;87228;-55
2021/11/22 02:20:06;;;;;;;;;;;8.50;72.20;;;;;;5101486;27;90997;-56
2021/11/22 02:22:32;;;;;;;;;;;8.50;72.30;;;;;;5103360;27;89687;-56
2021/11/22 02:24:58;;;;;;;;;;;8.40;72.10;;;;;;5101937;27;89485;-55
2021/11/22 02:27:24;;;;;;;;;;;8.40;72.30;;;;;;5103224;27;87137;-55
2021/11/22 02:29:50;;;;;;;;;;;8.40;72.40;;;;;;5101856;27;87934;-55
2021/11/22 02:32:15;;;;;;;;;;;8.40;72.30;;;;;;5098279;27;89788;-54
2021/11/22 02:34:41;;;;;;;;;;;8.30;72.40;;;;;;5098928;27;87244;-54
2021/11/22 02:37:07;;;;;;;;;;;8.30;72.40;;;;;;5098838;27;86983;-56
2021/11/22 02:39:33;;;;;;;;;;;8.30;72.60;;;;;;5098318;27;87899;-55
2021/11/22 02:41:58;;;;;;;;;;;8.20;72.60;;;;;;5101772;27;87175;-53
2021/11/22 02:44:24;;;;;;;;;;;8.20;72.50;;;;;;5099230;27;88675;-56
2021/11/22 02:46:50;;;;;;;;;;;8.20;72.30;;;;;;5100388;27;87148;-56
2021/11/22 02:49:15;;;;;;;;;;;8.20;72.40;;;;;;5100952;27;87440;-55
2021/11/22 02:51:41;;;;;;;;;;;8.20;72.40;;;;;;5100194;27;89047;-55
2021/11/22 02:54:07;;;;;;;;;;;8.20;72.30;;;;;;5101108;27;87190;-56
2021/11/22 02:56:33;;;;;;;;;;;8.10;72.30;;;;;;5101123;27;88693;-56
2021/11/22 02:59:00;;;;;;;;;;;8.10;72.40;;;;;;5099552;27;87283;-55
2021/11/22 03:01:25;;;;;;;;;;;8.10;72.30;;;;;;5103241;27;86477;-55
2021/11/22 03:03:52;;;;;;;;;;;8.20;72.20;;;;;;5100480;27;89959;-54
2021/11/22 03:06:17;;;;;;;;;;;8.10;72.20;;;;;;5101045;27;87239;-52
2021/11/22 03:08:44;;;;;;;;;;;8.10;72.30;;;;;;5100751;27;88201;-55
2021/11/22 03:11:10;;;;;;;;;;;8.10;72.10;;;;;;5098952;27;88604;-55
2021/11/22 03:13:35;;;;;;;;;;;8.10;72.20;;;;;;5098830;27;87236;-55
2021/11/22 03:16:01;;;;;;;;;;;8.10;72.20;;;;;;5098313;27;87391;-55
2021/11/22 03:18:27;;;;;;;;;;;8.10;72.10;;;;;;5098031;27;87548;-51
2021/11/22 03:20:53;;;;;;;;;;;8.00;72.20;;;;;;5098365;27;87176;-56
2021/11/22 03:23:19;;;;;;;;;;;8.10;72.30;;;;;;5101946;27;87520;-55
2021/11/22 03:25:44;;;;;;;;;;;8.00;72.30;;;;;;5100639;27;86438;-56
2021/11/22 03:28:11;;;;;;;;;;;8.00;72.20;;;;;;5100973;27;87180;-55
2021/11/22 03:30:38;;;;;;;;;;;8.00;72.30;;;;;;5097321;27;89928;-54
2021/11/22 03:33:05;;;;;;;;;;;8.00;72.40;;;;;;5098479;27;89833;-56
2021/11/22 03:35:31;;;;;;;;;;;8.00;72.40;;;;;;5100705;27;89543;-56
2021/11/22 03:37:56;;;;;;;;;;;8.00;72.40;;;;;;5097618;27;88919;-55
2021/11/22 03:40:22;;;;;;;;;;;7.90;72.20;;;;;;5098368;27;87176;-55
2021/11/22 03:43:32;;;;;;;;;;;7.90;72.50;;;;;;5099199;27;88797;-56
2021/11/22 03:45:38;;;;;;;;;;;7.80;72.40;;;;;;5093508;27;88747;-55
2021/11/22 03:48:04;;;;;;;;;;;7.80;72.40;;;;;;5100416;27;87227;-54
2021/11/22 03:50:30;;;;;;;;;;;7.80;72.60;;;;;;5101646;27;88515;-53
2021/11/22 03:52:55;;;;;;;;;;;7.80;72.40;;;;;;5101434;27;88482;-55
2021/11/22 03:55:21;;;;;;;;;;;7.80;72.50;;;;;;5098887;27;88627;-55
2021/11/22 03:57:47;;;;;;;;;;;7.80;72.30;;;;;;5096499;27;90254;-55
2021/11/22 04:00:13;;;;;;;;;;;7.80;72.40;;;;;;5100888;27;88055;-55
2021/11/22 04:02:39;;;;;;;;;;;7.80;72.20;;;;;;5101231;27;88095;-55
2021/11/22 04:05:05;;;;;;;;;;;7.80;72.20;;;;;;5101740;27;87169;-56
2021/11/22 04:07:31;;;;;;;;;;;7.70;72.20;;;;;;5103470;27;87142;-53
2021/11/22 04:09:57;;;;;;;;;;;7.80;72.00;;;;;;5101036;27;88231;-56
2021/11/22 04:12:23;;;;;;;;;;;7.70;72.20;;;;;;5101050;27;87243;-55
2021/11/22 04:14:49;;;;;;;;;;;7.70;72.20;;;;;;5102283;27;87620;-55
2021/11/22 04:17:14;;;;;;;;;;;7.70;72.20;;;;;;5098845;27;88732;-56
2021/11/22 04:19:40;;;;;;;;;;;7.60;72.20;;;;;;5097494;27;87154;-55
2021/11/22 04:22:05;;;;;;;;;;;7.70;72.30;;;;;;5097928;27;88917;-54
2021/11/22 04:24:31;;;;;;;;;;;7.60;72.10;;;;;;5098232;27;88497;-55
2021/11/22 04:26:57;;;;;;;;;;;7.60;72.20;;;;;;5099314;27;87149;-56
2021/11/22 04:29:22;;;;;;;;;;;7.70;72.20;;;;;;5102183;27;87562;-56
2021/11/22 04:31:48;;;;;;;;;;;7.60;72.30;;;;;;5098348;27;87137;-56
2021/11/22 04:34:14;;;;;;;;;;;7.60;72.10;;;;;;5097729;27;87121;-55
2021/11/22 04:36:39;;;;;;;;;;;7.60;72.00;;;;;;5096680;27;87997;-55
2021/11/22 04:39:05;;;;;;;;;;;7.50;72.20;;;;;;5098448;27;86546;-56
2021/11/22 04:41:30;;;;;;;;;;;7.60;72.10;;;;;;5098827;27;87180;-53
2021/11/22 04:43:56;;;;;;;;;;;7.50;72.10;;;;;;5098830;27;88301;-55
2021/11/22 04:46:22;;;;;;;;;;;7.50;72.20;;;;;;5099836;27;88111;-55
2021/11/22 04:48:47;;;;;;;;;;;7.50;72.30;;;;;;5103974;27;87962;-55
2021/11/22 04:51:13;;;;;;;;;;;7.50;72.40;;;;;;5099495;27;88605;-56
2021/11/22 04:53:38;;;;;;;;;;;7.50;72.40;;;;;;5096684;27;87369;-55
2021/11/22 04:56:04;;;;;;;;;;;7.50;72.20;;;;;;5097545;27;87597;-55
2021/11/22 04:58:30;;;;;;;;;;;7.50;72.00;;;;;;5099233;27;87173;-55
2021/11/22 05:00:56;;;;;;;;;;;7.50;72.20;;;;;;5101686;27;88498;-56
2021/11/22 05:03:22;;;;;;;;;;;7.40;72.10;;;;;;5100825;27;86887;-56
2021/11/22 05:05:47;;;;;;;;;;;7.40;72.30;;;;;;5099931;27;87226;-51
2021/11/22 05:08:13;;;;;;;;;;;7.40;72.20;;;;;;5102687;27;87627;-56
2021/11/22 05:10:40;;;;;;;;;;;7.50;72.00;;;;;;5103849;27;89668;-55
2021/11/22 05:13:05;;;;;;;;;;;7.50;71.90;;;;;;5103770;27;90152;-55
2021/11/22 05:15:34;;;;;;;;;;;7.40;71.80;;;;;;5100553;27;87771;-56
2021/11/22 05:17:59;;;;;;;;;;;7.40;71.80;;;;;;5103347;27;87227;-55
2021/11/22 05:20:25;;;;;;;;;;;7.40;71.80;;;;;;5103241;27;89318;-55
2021/11/22 05:22:51;;;;;;;;;;;7.40;71.80;;;;;;5103473;27;89990;-56
2021/11/22 05:25:17;;;;;;;;;;;7.40;71.80;;;;;;5103729;27;87228;-56
2021/11/22 05:27:42;;;;;;;;;;;7.40;71.80;;;;;;5104219;27;88989;-56
2021/11/22 05:30:08;;;;;;;;;;;7.40;71.60;;;;;;5101601;27;88756;-55
2021/11/22 05:32:33;;;;;;;;;;;7.40;71.80;;;;;;5104378;27;88353;-56
2021/11/22 05:34:59;;;;;;;;;;;7.40;71.90;;;;;;5098954;27;89180;-56
2021/11/22 05:37:27;;;;;;;;;;;7.30;71.80;;;;;;5101241;27;87173;-56
2021/11/22 05:39:53;;;;;;;;;;;7.30;71.80;;;;;;5100627;27;89062;-52
2021/11/22 05:42:19;;;;;;;;;;;7.30;71.80;;;;;;5099939;27;88997;-56
2021/11/22 05:44:44;;;;;;;;;;;7.30;71.80;;;;;;5100138;27;87177;-55
2021/11/22 05:47:11;;;;;;;;;;;7.30;71.80;;;;;;5101227;27;88806;-54
2021/11/22 05:49:37;;;;;;;;;;;7.30;71.70;;;;;;5099987;27;89805;-55
2021/11/22 05:52:04;;;;;;;;;;;7.30;71.70;;;;;;5100998;27;86484;-55
2021/11/22 05:54:31;;;;;;;;;;;7.30;71.70;;;;;;5105596;27;88823;-56
2021/11/22 05:56:58;;;;;;;;;;;7.20;71.70;;;;;;5100998;27;87152;-56
2021/11/22 05:59:23;;;;;;;;;;;7.30;71.70;;;;;;5100512;27;88186;-56
2021/11/22 06:01:50;;;;;;;;;;;7.30;71.60;;;;;;5100771;27;88418;-57
2021/11/22 06:04:15;;;;;;;;;;;7.30;71.60;;;;;;5099965;27;87149;-54
2021/11/22 06:06:41;;;;;;;;;;;7.20;71.70;;;;;;5099698;27;87164;-53
2021/11/22 06:09:06;;;;;;;;;;;7.20;71.70;;;;;;5100343;27;87766;-55
2021/11/22 06:11:32;;;;;;;;;;;7.30;71.60;;;;;;5100858;27;87168;-55
2021/11/22 06:13:57;;;;;;;;;;;7.20;71.50;;;;;;5102314;27;88460;-55
2021/11/22 06:16:23;;;;;;;;;;;7.20;71.50;;;;;;5106011;27;87698;-55
2021/11/22 06:18:49;;;;;;;;;;;7.20;71.60;;;;;;5103303;27;87917;-55
2021/11/22 06:21:14;;;;;;;;;;;7.20;71.50;;;;;;5100364;27;88542;-55
2021/11/22 06:23:40;;;;;;;;;;;7.20;71.40;;;;;;5098585;27;88128;-56
2021/11/22 06:26:05;;;;;;;;;;;7.20;71.50;;;;;;5099482;27;88858;-55
2021/11/22 06:28:31;;;;;;;;;;;7.20;71.40;;;;;;5099598;27;88726;-53
2021/11/22 06:30:56;;;;;;;;;;;7.20;71.40;;;;;;5100129;27;87131;-56
2021/11/22 06:33:22;;;;;;;;;;;7.10;71.50;;;;;;5101429;27;87394;-56
2021/11/22 06:35:48;;;;;;;;;;;7.10;71.50;;;;;;5102204;27;88234;-55
2021/11/22 06:38:14;;;;;;;;;;;7.10;71.50;;;;;;5106084;27;87293;-55
2021/11/22 06:40:40;;;;;;;;;;;7.10;71.50;;;;;;5102236;27;88804;-53
2021/11/22 06:43:05;;;;;;;;;;;7.10;71.50;;;;;;5102143;27;87235;-54
2021/11/22 06:45:31;;;;;;;;;;;7.10;71.40;;;;;;5103050;27;87176;-56
2021/11/22 06:47:57;;;;;;;;;;;7.10;71.30;;;;;;5101468;27;89302;-55
2021/11/22 06:50:23;;;;;;;;;;;7.10;71.30;;;;;;5101115;27;88726;-55
2021/11/22 06:52:49;;;;;;;;;;;7.10;71.40;;;;;;5099337;27;88895;-54
2021/11/22 06:55:15;;;;;;;;;;;7.10;71.40;;;;;;5097931;27;89708;-56
2021/11/22 06:57:41;;;;;;;;;;;7.00;71.50;;;;;;5103107;27;88707;-55
2021/11/22 07:00:08;;;;;;;;;;;7.00;71.50;;;;;;5099155;27;88891;-56
2021/11/22 07:02:34;;;;;;;;;;;7.10;71.50;;;;;;5102792;27;87202;-56
2021/11/22 07:05:00;;;;;;;;;;;7.10;71.40;;;;;;5102141;27;87418;-55
2021/11/22 07:07:25;;;;;;;;;;;7.00;71.40;;;;;;5097794;27;89531;-55
2021/11/22 07:09:51;;;;;;;;;;;7.00;71.40;;;;;;5099257;27;87158;-55
2021/11/22 07:12:17;;;;;;;;;;;7.00;71.40;;;;;;5098046;27;88158;-54
2021/11/22 07:14:43;;;;;;;;;;;7.00;71.40;;;;;;5099040;27;89571;-54
2021/11/22 07:17:09;;;;;;;;;;;7.00;71.90;;;;;;5098388;27;87156;-56
2021/11/22 07:19:35;;;;;;;;;;;7.00;71.40;;;;;;5101716;27;87407;-55
2021/11/22 07:22:04;;;;;;;;;;;7.00;71.60;;;;;;5099523;27;87159;-55
2021/11/22 07:24:30;;;;;;;;;;;7.00;71.50;;;;;;5101436;27;88698;-55
2021/11/22 07:26:55;;;;;;;;;;;6.90;71.50;;;;;;5102239;27;88843;-55
2021/11/22 07:29:21;;;;;;;;;;;7.00;71.50;;;;;;5102672;27;86381;-54
2021/11/22 07:31:46;;;;;;;;;;;7.00;71.40;;;;;;5101415;27;87764;-55
2021/11/22 07:34:12;;;;;;;;;;;6.90;71.50;;;;;;5101661;27;89987;-56
2021/11/22 07:36:37;;;;;;;;;;;7.00;71.40;;;;;;5102134;27;88081;-55
2021/11/22 07:39:03;;;;;;;;;;;7.00;71.40;;;;;;5102142;27;87879;-55
2021/11/22 07:41:29;;;;;;;;;;;7.00;71.40;;;;;;5104918;27;88614;-54
2021/11/22 07:43:54;;;;;;;;;;;6.90;71.40;;;;;;5099652;27;87955;-55
2021/11/22 07:46:20;;;;;;;;;;;6.90;71.40;;;;;;5098867;27;89393;-54
2021/11/22 07:48:46;;;;;;;;;;;6.90;71.50;;;;;;5097896;27;87116;-54
2021/11/22 07:51:11;;;;;;;;;;;6.90;71.50;;;;;;5098697;27;87856;-56
2021/11/22 07:53:38;;;;;;;;;;;6.90;71.60;;;;;;5098893;27;88946;-54
2021/11/22 07:56:04;;;;;;;;;;;6.90;71.60;;;;;;5099643;27;87343;-56
2021/11/22 07:58:30;;;;;;;;;;;6.80;71.60;;;;;;5098057;27;87636;-53
2021/11/22 08:00:55;;;;;;;;;;;6.80;71.70;;;;;;5097029;27;89486;-54
2021/11/22 08:03:21;;;;;;;;;;;6.80;71.90;;;;;;5101660;27;87124;-55
2021/11/22 08:05:49;;;;;;;;;;;6.80;71.70;;;;;;5097873;27;87587;-55
2021/11/22 08:08:16;;;;;;;;;;;6.80;71.80;;;;;;5101765;27;87131;-55
2021/11/22 08:10:46;;;;;;;;;;;6.80;71.60;;;;;;5100893;27;87685;-55
2021/11/22 08:13:12;;;;;;;;;;;6.90;71.60;;;;;;5100761;27;90022;-55
2021/11/22 08:15:37;;;;;;;;;;;6.80;71.60;;;;;;5101314;27;88177;-56
2021/11/22 08:18:05;;;;;;;;;;;6.80;71.60;;;;;;5099702;27;89036;-54
2021/11/22 08:20:30;;;;;;;;;;;6.90;71.70;;;;;;5101440;27;89115;-55
2021/11/22 08:22:57;;;;;;;;;;;6.90;71.40;;;;;;5099450;27;87646;-56
2021/11/22 08:25:24;;;;;;;;;;;6.90;71.60;;;;;;5100493;27;89060;-56
2021/11/22 08:27:53;;;;;;;;;;;6.90;71.50;;;;;;5100775;27;87144;-55
2021/11/22 08:30:20;;;;;;;;;;;6.90;71.50;;;;;;5098874;27;89655;-56
2021/11/22 08:32:46;;;;;;;;;;;6.90;71.40;;;;;;5100197;27;88869;-53
2021/11/22 08:35:12;;;;;;;;;;;6.90;71.40;;;;;;5103053;27;88749;-55
2021/11/22 08:37:38;;;;;;;;;;;6.90;71.50;;;;;;5102942;27;88398;-54
2021/11/22 08:40:05;;;;;;;;;;;6.90;71.60;;;;;;5104815;27;87554;-54
2021/11/22 08:42:30;;;;;;;;;;;6.90;71.50;;;;;;5103396;27;86451;-55
2021/11/22 08:44:57;;;;;;;;;;;6.90;71.40;;;;;;5102712;27;87327;-54
2021/11/22 08:47:23;;;;;;;;;;;6.90;71.50;;;;;;5104739;27;89757;-55
2021/11/22 08:49:49;;;;;;;;;;;6.90;71.60;;;;;;5101973;27;89362;-54
2021/11/22 08:52:14;;;;;;;;;;;6.90;71.70;;;;;;5102057;27;89539;-54
2021/11/22 08:54:40;;;;;;;;;;;6.80;71.70;;;;;;5102959;27;87189;-56
2021/11/22 08:57:08;;;;;;;;;;;6.90;71.80;;;;;;5102859;27;87326;-55
2021/11/22 08:59:34;;;;;;;;;;;6.80;71.80;;;;;;5099871;27;89361;-55
2021/11/22 09:01:59;;;;;;;;;;;6.80;71.90;;;;;;5100614;27;87169;-56
2021/11/22 09:04:25;;;;;;;;;;;6.80;71.90;;;;;;5102011;27;87190;-55
2021/11/22 09:06:51;;;;;;;;;;;6.80;71.90;;;;;;5105347;27;87424;-55
2021/11/22 09:09:18;;;;;;;;;;;6.80;71.90;;;;;;5102481;27;87264;-55
2021/11/22 09:11:45;;;;;;;;;;;6.80;72.10;;;;;;5101069;27;89461;-55
2021/11/22 09:14:11;;;;;;;;;;;6.80;72.10;;;;;;5099019;27;89690;-54
2021/11/22 09:16:37;;;;;;;;;;;6.80;72.20;;;;;;5100483;27;87176;-54
2021/11/22 09:19:03;;;;;;;;;;;6.80;72.30;;;;;;5101291;27;88051;-53
2021/11/22 09:21:28;;;;;;;;;;;6.80;72.10;;;;;;5102203;27;87240;-55
2021/11/22 09:23:54;;;;;;;;;;;6.80;72.50;;;;;;5102257;27;87439;-55
2021/11/22 09:26:20;;;;;;;;;;;6.80;72.60;;;;;;5102652;27;87656;-55
2021/11/22 09:28:46;;;;;;;;;;;6.70;72.50;;;;;;5106655;27;87123;-56
2021/11/22 09:31:13;;;;;;;;;;;6.70;72.50;;;;;;5104128;27;86893;-53
2021/11/22 09:33:38;;;;;;;;;;;6.70;72.70;;;;;;5103549;27;87246;-55
2021/11/22 09:36:04;;;;;;;;;;;6.70;72.70;;;;;;5103866;27;87218;-55
2021/11/22 09:38:30;;;;;;;;;;;6.70;72.90;;;;;;5102645;27;88775;-54
2021/11/22 09:40:55;;;;;;;;;;;6.70;72.70;;;;;;5103671;27;87149;-54
2021/11/22 09:43:21;;;;;;;;;;;6.70;72.70;;;;;;5102469;27;88458;-54
2021/11/22 09:45:47;;;;;;;;;;;6.60;73.10;;;;;;5103014;27;89405;-55
2021/11/22 09:48:12;;;;;;;;;;;6.60;72.90;;;;;;5104296;27;87223;-55
2021/11/22 09:50:39;;;;;;;;;;;6.60;73.00;;;;;;5106869;27;87633;-54
2021/11/22 09:53:05;;;;;;;;;;;6.60;73.10;;;;;;5103350;27;87781;-55
2021/11/22 09:55:31;;;;;;;;;;;6.60;73.00;;;;;;5103279;27;87642;-55
2021/11/22 09:57:58;;;;;;;;;;;6.60;73.30;;;;;;5102045;27;87987;-55
2021/11/22 10:00:23;;;;;;;;;;;6.60;73.40;;;;;;5102249;27;87105;-55
2021/11/22 10:02:55;;;;;;;;;;;6.50;73.60;;;;;;5102692;27;88131;-53
2021/11/22 10:05:21;;;;;;;;;;;6.60;73.70;;;;;;5102109;27;89649;-55
2021/11/22 10:08:03;;;;;;;;;;;6.60;73.60;;;;;;5103648;27;87157;-53
2021/11/22 10:10:34;;;;;;;;;;;6.60;73.60;;;;;;5100798;27;88062;-54
2021/11/22 10:13:00;;;;;;;;;;;6.60;73.60;;;;;;5103842;27;88377;-54
2021/11/22 10:15:30;;;;;;;;;;;6.60;73.50;;;;;;5100601;27;87085;-52
2021/11/22 10:17:56;;;;;;;;;;;6.60;73.40;;;;;;5102031;27;88197;-55
2021/11/22 10:20:22;;;;;;;;;;;6.60;73.50;;;;;;5103477;27;86447;-56
2021/11/22 10:22:50;;;;;;;;;;;6.70;73.30;;;;;;5101998;27;88653;-52
2021/11/22 10:25:17;;;;;;;;;;;6.80;73.20;;;;;;5099183;27;89518;-54
2021/11/22 10:27:42;;;;;;;;;;;6.80;73.20;;;;;;5098478;27;88187;-55
2021/11/22 10:30:21;;;;;;;;;;;6.80;73.10;;;;;;5100294;27;87798;-55
2021/11/22 10:32:48;;;;;;;;;;;6.80;73.20;;;;;;5102810;27;88803;-53
2021/11/22 10:35:14;;;;;;;;;;;6.80;73.00;;;;;;5104605;27;87125;-55
2021/11/22 10:37:53;;;;;;;;;;;6.90;73.20;;;;;;5100312;27;88669;-55
2021/11/22 10:40:19;;;;;;;;;;;6.90;73.60;;;;;;5103563;27;87185;-52
2021/11/22 10:42:44;;;;;;;;;;;6.90;73.70;;;;;;5102201;27;88330;-55
2021/11/22 10:45:20;;;;;;;;;;;6.80;73.20;;;;;;5103028;27;87376;-54
2021/11/22 10:47:56;;;;;;;;;;;6.70;73.60;;;;;;5102454;27;88011;-56
2021/11/22 10:50:24;;;;;;;;;;;6.70;73.50;;;;;;5098460;27;88755;-56
2021/11/22 10:52:50;;;;;;;;;;;6.70;74.00;;;;;;5100728;27;88582;-55
2021/11/22 10:55:15;;;;;;;;;;;6.70;73.60;;;;;;5102341;27;87184;-54
2021/11/22 10:57:42;;;;;;;;;;;6.70;73.90;;;;;;5104494;27;88886;-55
2021/11/22 11:00:17;;;;;;;;;;;6.70;74.30;;;;;;5102840;27;87126;-56
2021/11/22 11:02:42;;;;;;;;;;;6.80;74.10;;;;;;5098049;27;88110;-55
2021/11/22 11:05:08;;;;;;;;;;;6.80;73.90;;;;;;5099903;27;89099;-56
2021/11/22 11:07:34;;;;;;;;;;;6.90;74.10;;;;;;5098757;27;87939;-55
2021/11/22 11:09:59;;;;;;;;;;;6.90;74.00;;;;;;5099611;27;87494;-55
2021/11/22 11:12:26;;;;;;;;;;;6.90;74.10;;;;;;5099579;27;87165;-53
2021/11/22 11:14:51;;;;;;;;;;;6.90;74.00;;;;;;5099815;27;87216;-56
2021/11/22 11:17:19;;;;;;;;;;;6.90;74.20;;;;;;5103317;27;88079;-56
2021/11/22 11:19:45;;;;;;;;;;;6.90;73.90;;;;;;5099833;27;87118;-56
2021/11/22 11:22:11;;;;;;;;;;;6.90;74.00;;;;;;5099886;27;88469;-55
2021/11/22 11:24:36;;;;;;;;;;;7.00;74.00;;;;;;5100692;27;89076;-52
2021/11/22 11:27:02;;;;;;;;;;;7.00;74.20;;;;;;5101175;27;87130;-54
2021/11/22 11:29:28;;;;;;;;;;;7.00;74.10;;;;;;5099426;27;89265;-55
2021/11/22 11:31:54;;;;;;;;;;;7.00;74.00;;;;;;5098373;27;88183;-56
2021/11/22 11:34:20;;;;;;;;;;;7.00;74.20;;;;;;5099500;27;87773;-56
2021/11/22 11:36:58;;;;;;;;;;;7.00;74.10;;;;;;5098168;27;87174;-54
2021/11/22 11:39:23;;;;;;;;;;;7.00;74.30;;;;;;5103105;27;88138;-56
2021/11/22 11:41:53;;;;;;;;;;;7.00;74.50;;;;;;5097191;27;88787;-55
2021/11/22 11:44:28;;;;;;;;;;;7.10;74.50;;;;;;5100238;27;87773;-56
2021/11/22 11:47:00;;;;;;;;;;;7.10;74.60;;;;;;5102506;27;87104;-53
2021/11/22 11:49:30;;;;;;;;;;;7.10;74.80;;;;;;5099864;27;87463;-54
2021/11/22 11:51:55;;;;;;;;;;;7.10;74.90;;;;;;5100988;27;88475;-55
2021/11/22 11:54:22;;;;;;;;;;;7.10;75.10;;;;;;5100474;27;87126;-55
2021/11/22 11:56:55;;;;;;;;;;;7.10;74.90;;;;;;5098281;27;87601;-56
2021/11/22 11:59:26;;;;;;;;;;;7.10;74.90;;;;;;5101114;27;86797;-54
2021/11/22 12:01:55;;;;;;;;;;;7.10;75.10;;;;;;5102876;27;87187;-55
2021/11/22 12:04:21;;;;;;;;;;;7.10;75.00;;;;;;5099946;27;88227;-55
2021/11/22 12:06:49;;;;;;;;;;;7.10;75.20;;;;;;5100242;27;88152;-56
2021/11/22 12:09:32;;;;;;;;;;;7.10;75.20;;;;;;5099456;27;89770;-55
2021/11/22 12:12:18;;;;;;;;;;;7.10;75.40;;;;;;5103969;27;88599;-54
2021/11/22 12:14:47;;;;;;;;;;;7.20;75.30;;;;;;5102095;27;88394;-55
2021/11/22 12:17:33;;;;;;;;;;;7.20;75.60;;;;;;5103076;27;87579;-56
2021/11/22 12:20:04;;;;;;;;;;;7.10;75.30;;;;;;5104014;27;88550;-55
2021/11/22 12:22:34;;;;;;;;;;;7.20;75.40;;;;;;5104631;27;87192;-54
2021/11/22 12:25:00;;;;;;;;;;;7.20;75.10;;;;;;5107295;27;87363;-55
2021/11/22 12:27:29;;;;;;;;;;;7.20;75.40;;;;;;5104415;27;88304;-56
2021/11/22 12:29:55;;;;;;;;;;;7.20;75.30;;;;;;5101414;27;88679;-55
2021/11/22 12:32:28;;;;;;;;;;;7.20;75.50;;;;;;5100129;27;89030;-55
2021/11/22 12:34:58;;;;;;;;;;;7.30;75.40;;;;;;5105056;27;87198;-56
2021/11/22 12:37:28;;;;;;;;;;;7.30;75.30;;;;;;5105029;27;87819;-56
2021/11/22 12:39:54;;;;;;;;;;;7.30;75.30;;;;;;5100852;27;88326;-56
2021/11/22 12:42:23;;;;;;;;;;;7.30;75.50;;;;;;5101024;27;88297;-54
2021/11/22 12:44:56;;;;;;;;;;;7.30;75.60;;;;;;5103081;27;88820;-56
2021/11/22 12:47:26;;;;;;;;;;;7.30;75.50;;;;;;5104829;27;89079;-56
2021/11/22 12:50:05;;;;;;;;;;;7.30;75.20;;;;;;5100823;27;88413;-54
2021/11/22 12:52:31;;;;;;;;;;;7.40;75.50;;;;;;5102571;27;88132;-55
2021/11/22 12:54:59;;;;;;;;;;;7.30;75.50;;;;;;5101283;27;87186;-56
2021/11/22 12:57:34;;;;;;;;;;;7.40;75.60;;;;;;5100109;27;89899;-56
2021/11/22 13:00:11;;;;;;;;;;;7.40;75.40;;;;;;5101075;27;87880;-54
2021/11/22 13:02:41;;;;;;;;;;;7.40;75.50;;;;;;5101414;27;87138;-56
2021/11/22 13:05:06;;;;;;;;;;;7.40;75.60;;;;;;5103446;27;87473;-55
2021/11/22 13:07:35;;;;;;;;;;;7.40;75.80;;;;;;5104315;27;88229;-55
2021/11/22 13:10:05;;;;;;;;;;;7.40;75.70;;;;;;5104411;27;87163;-54
2021/11/22 13:12:32;;;;;;;;;;;7.40;75.50;;;;;;5102477;27;87601;-55
2021/11/22 13:15:03;;;;;;;;;;;7.40;75.40;;;;;;5081608;27;86425;-55
2021/11/22 13:17:29;;;;;;;;;;;7.40;75.60;;;;;;5100144;27;88220;-56
2021/11/22 13:19:57;;;;;;;;;;;7.50;75.50;;;;;;5100587;27;88247;-56
2021/11/22 13:22:23;;;;;;;;;;;7.40;76.20;;;;;;5102490;27;88763;-54
2021/11/22 13:24:49;;;;;;;;;;;7.40;75.80;;;;;;5103623;27;89867;-55
2021/11/22 13:27:14;;;;;;;;;;;7.50;76.30;;;;;;5101062;27;89462;-56
2021/11/22 13:29:40;;;;;;;;;;;7.50;75.60;;;;;;5103202;27;87157;-56
2021/11/22 13:32:08;;;;;;;;;;;7.50;75.80;;;;;;5100898;27;89325;-57
2021/11/22 13:34:33;;;;;;;;;;;7.50;75.90;;;;;;5099589;27;87220;-56
2021/11/22 13:37:02;;;;;;;;;;;7.50;75.90;;;;;;5100690;27;87409;-57
2021/11/22 13:39:29;;;;;;;;;;;7.50;75.80;;;;;;5104835;27;87420;-56
2021/11/22 13:42:07;;;;;;;;;;;7.50;76.40;;;;;;5103077;27;87110;-55
2021/11/22 13:44:34;;;;;;;;;;;7.50;76.00;;;;;;5101553;27;89507;-56
2021/11/22 13:47:02;;;;;;;;;;;7.50;76.00;;;;;;5101802;27;90449;-56
2021/11/22 13:49:28;;;;;;;;;;;7.50;76.00;;;;;;5099706;27;87186;-56
2021/11/22 13:51:54;;;;;;;;;;;7.50;76.00;;;;;;5103231;27;89180;-57
2021/11/22 13:54:24;;;;;;;;;;;7.60;76.10;;;;;;5101885;27;87267;-54
2021/11/22 13:56:58;;;;;;;;;;;7.60;76.00;;;;;;5103450;27;88560;-55
2021/11/22 13:59:34;;;;;;;;;;;7.60;75.90;;;;;;5099932;27;87233;-57
2021/11/22 14:02:06;;;;;;;;;;;7.60;76.00;;;;;;5099233;27;87113;-57
2021/11/22 14:04:35;;;;;;;;;;;7.60;75.90;;;;;;5102829;27;88928;-54
2021/11/22 14:07:05;;;;;;;;;;;7.60;75.80;;;;;;5098783;27;90250;-57
2021/11/22 14:09:31;;;;;;;;;;;7.70;75.90;;;;;;5099334;27;87166;-56
2021/11/22 14:11:57;;;;;;;;;;;7.70;76.00;;;;;;5098566;27;88093;-57
2021/11/22 14:14:28;;;;;;;;;;;7.60;75.90;;;;;;5101903;27;89074;-56
2021/11/22 14:16:57;;;;;;;;;;;7.70;76.00;;;;;;5100215;27;87395;-56
2021/11/22 14:19:23;;;;;;;;;;;7.70;76.00;;;;;;5101902;27;88434;-55
2021/11/22 14:21:50;;;;;;;;;;;7.70;76.00;;;;;;5101890;27;87133;-56
2021/11/22 14:24:20;;;;;;;;;;;7.70;75.90;;;;;;5101158;27;89123;-57
2021/11/22 14:26:47;;;;;;;;;;;7.70;76.10;;;;;;5101074;27;89503;-57
2021/11/22 14:29:15;;;;;;;;;;;7.70;76.10;;;;;;5099279;27;87158;-57